sensor_id;sensor_type;location;lat;lon;timestamp;temperature;humidity
23769;DHT22;12064;50.890;5.424;2023-06-22T00:03:32;24.60;78.20
23769;DHT22;12064;50.890;5.424;2023-06-22T00:12:25;24.50;78.40
23769;DHT22;12064;50.890;5.424;2023-06-22T00:21:16;24.50;78.90
23769;DHT22;12064;50.890;5.424;2023-06-22T00:30:07;24.40;80.00
23769;DHT22;12064;50.890;5.424;2023-06-22T00:38:59;24.40;79.40
23769;DHT22;12064;50.890;5.424;2023-06-22T00:48:01;24.40;78.70
23769;DHT22;12064;50.890;5.424;2023-06-22T00:56:55;24.40;79.20
23769;DHT22;12064;50.890;5.424;2023-06-22T01:05:48;24.30;78.80
23769;DHT22;12064;50.890;5.424;2023-06-22T01:15:10;24.30;78.30
23769;DHT22;12064;50.890;5.424;2023-06-22T01:24:21;24.30;78.40
23769;DHT22;12064;50.890;5.424;2023-06-22T01:33:22;24.20;77.90
23769;DHT22;12064;50.890;5.424;2023-06-22T01:42:13;24.10;77.70
23769;DHT22;12064;50.890;5.424;2023-06-22T01:51:04;24.00;77.80
23769;DHT22;12064;50.890;5.424;2023-06-22T02:00:24;24.10;78.00
23769;DHT22;12064;50.890;5.424;2023-06-22T02:09:17;24.00;78.90
23769;DHT22;12064;50.890;5.424;2023-06-22T02:18:10;24.00;80.40
23769;DHT22;12064;50.890;5.424;2023-06-22T02:27:02;24.00;81.30
23769;DHT22;12064;50.890;5.424;2023-06-22T02:35:53;23.90;82.80
23769;DHT22;12064;50.890;5.424;2023-06-22T02:44:43;23.90;83.90
23769;DHT22;12064;50.890;5.424;2023-06-22T02:53:36;23.90;84.00
23769;DHT22;12064;50.890;5.424;2023-06-22T03:02:27;23.90;84.60
23769;DHT22;12064;50.890;5.424;2023-06-22T03:11:18;23.70;86.00
23769;DHT22;12064;50.890;5.424;2023-06-22T03:20:09;23.60;87.50
23769;DHT22;12064;50.890;5.424;2023-06-22T03:29:01;23.70;87.70
23769;DHT22;12064;50.890;5.424;2023-06-22T03:37:52;23.70;88.50
23769;DHT22;12064;50.890;5.424;2023-06-22T03:46:42;23.70;88.10
23769;DHT22;12064;50.890;5.424;2023-06-22T03:55:34;23.60;88.90
23769;DHT22;12064;50.890;5.424;2023-06-22T04:04:25;23.60;88.60
23769;DHT22;12064;50.890;5.424;2023-06-22T04:13:16;23.60;89.40
23769;DHT22;12064;50.890;5.424;2023-06-22T04:22:07;23.50;91.00
23769;DHT22;12064;50.890;5.424;2023-06-22T04:30:57;23.40;92.40
23769;DHT22;12064;50.890;5.424;2023-06-22T04:39:51;23.40;93.20
23769;DHT22;12064;50.890;5.424;2023-06-22T04:48:47;23.20;93.50
23769;DHT22;12064;50.890;5.424;2023-06-22T04:57:40;23.30;93.60
23769;DHT22;12064;50.890;5.424;2023-06-22T05:06:31;23.30;94.20
23769;DHT22;12064;50.890;5.424;2023-06-22T05:15:21;23.30;95.00
23769;DHT22;12064;50.890;5.424;2023-06-22T05:24:17;23.30;95.30
23769;DHT22;12064;50.890;5.424;2023-06-22T05:33:07;23.30;95.40
23769;DHT22;12064;50.890;5.424;2023-06-22T05:41:58;23.30;95.70
23769;DHT22;12064;50.890;5.424;2023-06-22T05:50:49;23.00;96.20
23769;DHT22;12064;50.890;5.424;2023-06-22T05:59:40;23.00;96.50
23769;DHT22;12064;50.890;5.424;2023-06-22T06:08:30;23.30;95.10
23769;DHT22;12064;50.890;5.424;2023-06-22T06:17:21;23.50;94.40
23769;DHT22;12064;50.890;5.424;2023-06-22T06:26:11;23.60;94.00
23769;DHT22;12064;50.890;5.424;2023-06-22T06:35:02;23.60;93.70
23769;DHT22;12064;50.890;5.424;2023-06-22T06:43:53;23.70;93.50
23769;DHT22;12064;50.890;5.424;2023-06-22T06:52:44;23.70;93.30
23769;DHT22;12064;50.890;5.424;2023-06-22T07:01:35;23.80;93.20
23769;DHT22;12064;50.890;5.424;2023-06-22T07:10:26;23.80;92.90
23769;DHT22;12064;50.890;5.424;2023-06-22T07:19:24;23.90;92.80
23769;DHT22;12064;50.890;5.424;2023-06-22T07:28:16;23.90;92.60
23769;DHT22;12064;50.890;5.424;2023-06-22T07:37:06;24.00;92.50
23769;DHT22;12064;50.890;5.424;2023-06-22T07:45:57;24.00;92.30
23769;DHT22;12064;50.890;5.424;2023-06-22T07:54:48;24.00;92.10
23769;DHT22;12064;50.890;5.424;2023-06-22T08:03:38;24.10;92.00
23769;DHT22;12064;50.890;5.424;2023-06-22T08:12:29;24.10;91.90
23769;DHT22;12064;50.890;5.424;2023-06-22T08:21:20;24.10;91.80
23769;DHT22;12064;50.890;5.424;2023-06-22T08:30:11;24.20;91.70
23769;DHT22;12064;50.890;5.424;2023-06-22T08:39:01;24.20;91.50
23769;DHT22;12064;50.890;5.424;2023-06-22T08:47:53;24.30;91.40
23769;DHT22;12064;50.890;5.424;2023-06-22T08:56:44;24.30;91.30
23769;DHT22;12064;50.890;5.424;2023-06-22T09:05:34;24.30;91.50
23769;DHT22;12064;50.890;5.424;2023-06-22T09:14:25;24.40;91.10
23769;DHT22;12064;50.890;5.424;2023-06-22T09:23:16;24.40;91.00
23769;DHT22;12064;50.890;5.424;2023-06-22T09:32:07;24.50;91.00
23769;DHT22;12064;50.890;5.424;2023-06-22T09:40:57;24.50;90.90
23769;DHT22;12064;50.890;5.424;2023-06-22T09:49:48;24.50;90.80
23769;DHT22;12064;50.890;5.424;2023-06-22T09:58:39;24.50;90.90
23769;DHT22;12064;50.890;5.424;2023-06-22T10:07:29;24.50;90.80
23769;DHT22;12064;50.890;5.424;2023-06-22T10:16:21;24.50;90.80
23769;DHT22;12064;50.890;5.424;2023-06-22T10:25:12;24.60;90.80
23769;DHT22;12064;50.890;5.424;2023-06-22T10:34:03;24.60;90.70
23769;DHT22;12064;50.890;5.424;2023-06-22T10:42:54;24.60;90.70
23769;DHT22;12064;50.890;5.424;2023-06-22T10:51:44;24.70;90.70
23769;DHT22;12064;50.890;5.424;2023-06-22T11:00:35;24.60;90.60
23769;DHT22;12064;50.890;5.424;2023-06-22T11:09:25;24.70;90.60
23769;DHT22;12064;50.890;5.424;2023-06-22T11:18:16;24.70;90.50
23769;DHT22;12064;50.890;5.424;2023-06-22T11:27:08;24.70;90.40
23769;DHT22;12064;50.890;5.424;2023-06-22T11:35:58;24.70;90.40
23769;DHT22;12064;50.890;5.424;2023-06-22T11:44:50;24.80;90.30
23769;DHT22;12064;50.890;5.424;2023-06-22T11:53:40;24.80;92.70
23769;DHT22;12064;50.890;5.424;2023-06-22T12:02:31;24.80;92.50
23769;DHT22;12064;50.890;5.424;2023-06-22T12:11:21;24.80;91.00
23769;DHT22;12064;50.890;5.424;2023-06-22T12:20:12;24.80;90.90
23769;DHT22;12064;50.890;5.424;2023-06-22T12:29:02;24.80;90.80
23769;DHT22;12064;50.890;5.424;2023-06-22T12:37:53;24.80;90.90
23769;DHT22;12064;50.890;5.424;2023-06-22T12:46:45;24.80;90.70
23769;DHT22;12064;50.890;5.424;2023-06-22T12:55:35;24.80;90.70
23769;DHT22;12064;50.890;5.424;2023-06-22T13:04:26;24.80;90.70
23769;DHT22;12064;50.890;5.424;2023-06-22T13:13:17;24.90;90.70
23769;DHT22;12064;50.890;5.424;2023-06-22T13:22:28;24.90;90.70
23769;DHT22;12064;50.890;5.424;2023-06-22T13:31:21;24.90;90.60
23769;DHT22;12064;50.890;5.424;2023-06-22T13:40:12;24.80;90.70
23769;DHT22;12064;50.890;5.424;2023-06-22T13:49:03;24.80;90.70
23769;DHT22;12064;50.890;5.424;2023-06-22T13:57:54;24.80;90.70
23769;DHT22;12064;50.890;5.424;2023-06-22T14:06:44;24.80;90.70
23769;DHT22;12064;50.890;5.424;2023-06-22T14:15:35;24.80;90.70
23769;DHT22;12064;50.890;5.424;2023-06-22T14:24:25;24.80;90.80
23769;DHT22;12064;50.890;5.424;2023-06-22T14:33:16;24.70;90.70
23769;DHT22;12064;50.890;5.424;2023-06-22T14:42:08;24.70;90.80
23769;DHT22;12064;50.890;5.424;2023-06-22T14:50:59;24.70;90.80
23769;DHT22;12064;50.890;5.424;2023-06-22T14:59:50;24.70;90.80
23769;DHT22;12064;50.890;5.424;2023-06-22T15:08:41;24.70;90.90
23769;DHT22;12064;50.890;5.424;2023-06-22T15:17:32;24.60;90.90
23769;DHT22;12064;50.890;5.424;2023-06-22T15:26:23;24.50;90.90
23769;DHT22;12064;50.890;5.424;2023-06-22T15:35:16;24.50;90.90
23769;DHT22;12064;50.890;5.424;2023-06-22T15:44:08;24.50;90.90
23769;DHT22;12064;50.890;5.424;2023-06-22T15:52:59;24.50;91.10
23769;DHT22;12064;50.890;5.424;2023-06-22T16:01:50;24.50;90.70
23769;DHT22;12064;50.890;5.424;2023-06-22T16:10:40;24.50;90.80
23769;DHT22;12064;50.890;5.424;2023-06-22T16:19:34;24.50;90.90
23769;DHT22;12064;50.890;5.424;2023-06-22T16:28:25;24.40;90.90
23769;DHT22;12064;50.890;5.424;2023-06-22T16:37:15;24.40;91.00
23769;DHT22;12064;50.890;5.424;2023-06-22T16:46:06;24.40;91.00
23769;DHT22;12064;50.890;5.424;2023-06-22T16:54:57;24.40;91.10
23769;DHT22;12064;50.890;5.424;2023-06-22T17:04:00;24.40;91.10
23769;DHT22;12064;50.890;5.424;2023-06-22T17:12:51;24.40;91.20
23769;DHT22;12064;50.890;5.424;2023-06-22T17:21:43;24.30;91.20
23769;DHT22;12064;50.890;5.424;2023-06-22T17:30:36;24.30;91.20
23769;DHT22;12064;50.890;5.424;2023-06-22T17:39:27;24.30;91.20
23769;DHT22;12064;50.890;5.424;2023-06-22T17:48:21;24.30;91.20
23769;DHT22;12064;50.890;5.424;2023-06-22T17:57:17;24.20;91.90
23769;DHT22;12064;50.890;5.424;2023-06-22T18:06:08;24.20;93.30
23769;DHT22;12064;50.890;5.424;2023-06-22T18:14:59;24.10;93.60
23769;DHT22;12064;50.890;5.424;2023-06-22T18:23:50;24.10;93.70
23769;DHT22;12064;50.890;5.424;2023-06-22T18:32:42;24.00;93.90
23769;DHT22;12064;50.890;5.424;2023-06-22T18:41:38;24.00;94.00
23769;DHT22;12064;50.890;5.424;2023-06-22T18:50:43;24.00;93.90
23769;DHT22;12064;50.890;5.424;2023-06-22T18:59:53;24.10;94.20
23769;DHT22;12064;50.890;5.424;2023-06-22T19:09:13;24.00;94.40
23769;DHT22;12064;50.890;5.424;2023-06-22T19:18:18;24.00;94.70
23769;DHT22;12064;50.890;5.424;2023-06-22T19:27:09;23.90;94.90
23769;DHT22;12064;50.890;5.424;2023-06-22T19:36:01;23.90;95.10
23769;DHT22;12064;50.890;5.424;2023-06-22T19:44:53;23.90;95.30
23769;DHT22;12064;50.890;5.424;2023-06-22T19:53:44;23.90;95.50
23769;DHT22;12064;50.890;5.424;2023-06-22T20:02:34;23.90;95.60
23769;DHT22;12064;50.890;5.424;2023-06-22T20:11:27;23.80;95.60
23769;DHT22;12064;50.890;5.424;2023-06-22T20:20:24;23.80;95.30
23769;DHT22;12064;50.890;5.424;2023-06-22T20:29:32;23.80;95.00
23769;DHT22;12064;50.890;5.424;2023-06-22T20:38:26;23.80;94.50
23769;DHT22;12064;50.890;5.424;2023-06-22T20:47:19;23.70;94.60
23769;DHT22;12064;50.890;5.424;2023-06-22T20:56:13;23.60;94.80
23769;DHT22;12064;50.890;5.424;2023-06-22T21:05:04;23.60;94.90
23769;DHT22;12064;50.890;5.424;2023-06-22T21:13:54;23.60;94.90
23769;DHT22;12064;50.890;5.424;2023-06-22T21:22:45;23.50;95.10
23769;DHT22;12064;50.890;5.424;2023-06-22T21:31:36;23.50;95.00
23769;DHT22;12064;50.890;5.424;2023-06-22T21:40:27;23.50;95.00
23769;DHT22;12064;50.890;5.424;2023-06-22T21:49:17;23.50;95.00
23769;DHT22;12064;50.890;5.424;2023-06-22T21:58:08;23.50;95.00
23769;DHT22;12064;50.890;5.424;2023-06-22T22:06:59;23.50;95.00
23769;DHT22;12064;50.890;5.424;2023-06-22T22:15:49;23.50;95.20
23769;DHT22;12064;50.890;5.424;2023-06-22T22:24:41;23.50;95.10
23769;DHT22;12064;50.890;5.424;2023-06-22T22:33:32;23.50;95.30
23769;DHT22;12064;50.890;5.424;2023-06-22T22:42:23;23.50;95.50
23769;DHT22;12064;50.890;5.424;2023-06-22T22:51:14;23.40;95.60
23769;DHT22;12064;50.890;5.424;2023-06-22T23:00:06;23.40;95.90
23769;DHT22;12064;50.890;5.424;2023-06-22T23:09:02;23.50;95.60
23769;DHT22;12064;50.890;5.424;2023-06-22T23:17:53;23.40;95.60
23769;DHT22;12064;50.890;5.424;2023-06-22T23:26:44;23.40;95.60
23769;DHT22;12064;50.890;5.424;2023-06-22T23:35:37;23.40;95.50
23769;DHT22;12064;50.890;5.424;2023-06-22T23:44:30;23.40;95.50
23769;DHT22;12064;50.890;5.424;2023-06-22T23:53:21;23.40;95.40
